Main page
METAR-TAF:

METAR-TAF

Airports :

Hawarden, Wales

Hawarden Airport

latitude: 53-10N, longitude: 002-59W, elevation: 10 m

Current weather observation

The report was made 21 minutes ago, at 19:50 UTC
Wind 2 kt from variable directions
Temperature 2°C
Humidity 100%
Pressure 1032 hPa
Visibility 10 km or more
Few clouds at a height of 2000 ft

METAR: EGNR 181950Z VRB02KT 9999 FEW020 02/02 Q1032

Time: 20:11 (20:11 UTC)

Forecast

The report was made 3 hours and 15 minutes ago, at 16:56 UTC
Forecast valid from 18 at 18 UTC to 18 at 21 UTC
Wind 3 kt from variable directions
Visibility 10 km or more
Few clouds at a height of 1500 ft
Becoming
from 18 at 18 UTC to 18 at 21 UTC
Visibility: 3000 m
mist

TAF: EGNR 181656Z 1818/1821 VRB03KT 9999 FEW015 BECMG 1818/1821 3000 BR

Weather observations and forecasts of more than 4000 airports (METAR and TAF reports).

The available stations are represented by yellow and red dots on the map.

Hover mouse over dot to see the name of the station.

Then click to see weather observations and forecasts.

To change the map : click on the green buttons with a black cross to zoom in, on the green button with a dash to zoom out, or on the green arrows for adjacent maps.


METAR-TAF: